Avalon, California
Current Conditions -  °F | °C
As of 7:51 PM on Saturday 24 Jan 2015 (Local Time) from KAVX Reporting Station
Clear Clear  
Wind Chill: 66°   Ceiling: Unl
Heat Index: 66°   Visibility: 10mi
Dew Point: 24°   Wind: 18mph
Humidity: 20%   Direction: 80°E
Pressure: 30.06"   Gusts: 25mph
Location:  33.34°N, 118.33°W
Report Text: KAVX 250351Z AUTO 08016G22KT 10SM CLR 19/M04 A3006 RMK AO2 SLP164 T01891044
Loading
Personal Weather Stations






























Interactive Weather Map New forecast layout! Learn more

10-Day Weather Forecast

Advertisements
Track Severe Weather on mobile